Time;durP1;ratioP1;P1;durP2;ratioP2;P2;SDS_P1;SDS_P2;PMS_P1;PMS_P2;Temp;Humidity;BMP_temperature;BMP_pressure;BME280_temperature;BME280_humidity;BME280_pressure;Samples;Min_cycle;Max_cycle;Signal;HPM_P1;HPM_P2
2023/05/03 00:00:42;;;;;;;14.27;10.57;;;;;;;5.66;88.97;102027.00;5036345;28;20056;-78
2023/05/03 00:03:08;;;;;;;23.15;11.85;;;;;;;5.59;89.01;102020.47;5034516;28;20132;-79
2023/05/03 00:05:35;;;;;;;15.80;11.15;;;;;;;5.52;89.86;102026.94;5037588;28;20086;-78
2023/05/03 00:08:02;;;;;;;15.95;10.57;;;;;;;5.50;89.99;102020.19;5036710;28;20152;-79
2023/05/03 00:10:29;;;;;;;15.05;10.50;;;;;;;5.39;89.93;102020.78;5036108;28;20049;-80
2023/05/03 00:12:57;;;;;;;16.33;11.13;;;;;;;5.32;90.69;102017.72;5035147;28;20056;-79
2023/05/03 00:15:24;;;;;;;15.82;11.27;;;;;;;5.25;91.30;102018.97;5033551;28;20144;-80
2023/05/03 00:17:51;;;;;;;14.77;10.90;;;;;;;5.31;91.64;102012.59;5033588;28;20576;-79
2023/05/03 00:20:19;;;;;;;17.05;10.65;;;;;;;5.27;91.99;102011.09;5033510;28;20065;-79
2023/05/03 00:22:46;;;;;;;14.38;9.77;;;;;;;5.22;92.16;102013.13;5033415;28;20060;-80
2023/05/03 00:25:14;;;;;;;19.30;11.27;;;;;;;5.11;92.18;102005.97;5053080;22;20139;-75
2023/05/03 00:27:40;;;;;;;16.95;10.70;;;;;;;5.08;92.34;102002.72;5075906;28;20406;-80
2023/05/03 00:30:09;;;;;;;19.52;10.48;;;;;;;4.96;92.84;102001.66;5076827;28;20131;-80
2023/05/03 00:32:36;;;;;;;16.75;10.70;;;;;;;4.95;93.33;102013.78;5064914;28;20189;-79
2023/05/03 00:35:03;;;;;;;17.50;10.75;;;;;;;4.83;93.24;102014.47;5072711;28;20044;-80
2023/05/03 00:37:31;;;;;;;19.13;10.60;;;;;;;4.72;93.74;102014.25;5074370;28;20115;-79
2023/05/03 00:39:57;;;;;;;14.98;10.68;;;;;;;4.74;94.33;102021.91;5077360;28;20075;-79
2023/05/03 00:42:24;;;;;;;18.65;11.32;;;;;;;4.74;94.63;102027.94;5071947;28;20136;-79
2023/05/03 00:44:51;;;;;;;16.85;11.00;;;;;;;4.71;94.61;102030.72;5077513;28;20097;-79
2023/05/03 00:47:19;;;;;;;16.98;10.00;;;;;;;4.73;94.10;102030.59;5067458;28;20131;-80
2023/05/03 00:49:46;;;;;;;19.55;11.02;;;;;;;4.70;94.25;102026.47;5070333;28;20087;-79
2023/05/03 00:52:12;;;;;;;16.50;11.02;;;;;;;4.68;94.96;102028.28;5076206;28;20206;-78
2023/05/03 00:54:40;;;;;;;19.20;10.27;;;;;;;4.61;94.43;102021.78;5064720;28;20084;-78
2023/05/03 00:57:07;;;;;;;19.77;10.35;;;;;;;4.60;94.51;102018.34;5068905;28;20049;-79
2023/05/03 00:59:36;;;;;;;16.83;10.27;;;;;;;4.59;94.76;102018.41;5074931;28;20117;-79
2023/05/03 01:02:03;;;;;;;17.05;10.43;;;;;;;4.54;94.91;102016.06;5071296;28;20139;-78
2023/05/03 01:04:31;;;;;;;17.30;10.48;;;;;;;4.59;94.17;102013.22;5058910;28;20049;-79
2023/05/03 01:07:09;;;;;;;17.17;10.43;;;;;;;4.56;94.39;102010.81;5075850;28;20083;-79
2023/05/03 01:09:43;;;;;;;19.60;10.70;;;;;;;4.54;94.88;102005.72;5066143;28;20048;-79
2023/05/03 01:12:20;;;;;;;19.40;10.45;;;;;;;4.52;94.61;102004.13;5071742;28;20095;-79
2023/05/03 01:14:55;;;;;;;17.77;10.73;;;;;;;4.47;94.98;102006.13;5076619;28;20387;-78
2023/05/03 01:17:27;;;;;;;17.38;10.30;;;;;;;4.46;94.72;102004.44;5071104;28;20136;-78
2023/05/03 01:19:57;;;;;;;;;;;;;;;4.40;94.81;102005.63;5081301;28;20048;-78
2023/05/03 01:22:32;;;;;;;14.38;10.05;;;;;;;4.37;94.58;102004.94;5080025;28;19951;-78
2023/05/03 01:25:06;;;;;;;17.60;10.38;;;;;;;4.35;95.33;102010.19;5079374;28;20102;-78
2023/05/03 01:27:33;;;;;;;18.23;10.45;;;;;;;4.33;95.14;102007.69;5077210;28;20144;-78
2023/05/03 01:30:00;;;;;;;16.25;9.98;;;;;;;4.30;95.44;102010.44;5075767;28;20287;-79
2023/05/03 01:32:32;;;;;;;15.63;10.52;;;;;;;4.29;95.92;102006.19;5061687;28;20084;-79
2023/05/03 01:35:05;;;;;;;18.23;10.77;;;;;;;4.29;95.47;102016.53;5068533;28;20040;-77
2023/05/03 01:37:32;;;;;;;15.20;10.30;;;;;;;4.27;96.37;102020.97;5074917;28;20056;-78
2023/05/03 01:40:03;;;;;;;18.55;10.80;;;;;;;4.20;95.87;102011.88;5079604;28;20079;-78
2023/05/03 01:42:31;;;;;;;17.30;10.65;;;;;;;4.24;95.84;102018.56;5080274;28;20086;-78
2023/05/03 01:44:59;;;;;;;14.13;9.98;;;;;;;4.20;95.83;102013.63;5070576;28;20075;-78
2023/05/03 01:47:26;;;;;;;16.77;10.55;;;;;;;4.15;96.07;102013.88;5078936;28;20044;-78
2023/05/03 01:49:53;;;;;;;16.25;10.95;;;;;;;4.06;96.00;102004.00;5075155;28;20057;-78
2023/05/03 01:52:19;;;;;;;15.38;10.35;;;;;;;4.07;95.98;102016.03;5059323;28;20152;-79
2023/05/03 01:54:46;;;;;;;18.42;10.80;;;;;;;4.05;95.75;102025.63;5068892;28;20107;-78
2023/05/03 01:57:14;;;;;;;17.23;10.50;;;;;;;4.03;96.15;102024.88;5072005;28;20131;-79
2023/05/03 01:59:41;;;;;;;15.40;10.40;;;;;;;4.04;96.82;102029.13;5058481;28;20135;-78
2023/05/03 02:02:07;;;;;;;16.25;9.75;;;;;;;4.02;96.35;102030.97;5074833;28;20080;-78
2023/05/03 02:04:34;;;;;;;15.07;10.40;;;;;;;4.03;97.05;102030.06;5070026;28;20087;-78
2023/05/03 02:07:01;;;;;;;17.10;10.18;;;;;;;4.02;96.63;102030.97;5062141;28;20045;-78
2023/05/03 02:09:27;;;;;;;15.63;9.77;;;;;;;4.02;96.72;102036.16;5074130;28;20107;-78
2023/05/03 02:11:54;;;;;;;15.80;10.07;;;;;;;4.00;96.88;102035.38;5058883;28;20137;-78
2023/05/03 02:14:22;;;;;;;17.60;10.02;;;;;;;3.93;96.80;102031.44;5067349;28;20608;-78
2023/05/03 02:16:48;;;;;;;16.17;10.07;;;;;;;3.93;97.22;102027.09;5069457;28;20131;-78
2023/05/03 02:19:15;;;;;;;18.42;9.98;;;;;;;3.90;97.22;102026.41;5066967;28;20052;-78
2023/05/03 02:21:41;;;;;;;17.17;10.05;;;;;;;3.95;97.22;102032.19;5069462;28;20045;-78
2023/05/03 02:24:08;;;;;;;16.27;9.82;;;;;;;3.89;97.27;102043.72;5061358;28;20084;-78
2023/05/03 02:26:35;;;;;;;19.38;10.88;;;;;;;3.82;97.50;102044.94;5061830;28;20119;-78
2023/05/03 02:29:01;;;;;;;18.75;10.57;;;;;;;3.83;98.10;102038.00;5078439;28;20048;-77
2023/05/03 02:31:29;;;;;;;18.42;11.00;;;;;;;3.77;97.98;102046.09;5065198;28;20421;-78
2023/05/03 02:33:56;;;;;;;20.00;11.00;;;;;;;3.72;97.71;102050.69;5055546;28;20084;-77
2023/05/03 02:36:23;;;;;;;22.17;10.23;;;;;;;3.72;97.84;102053.25;5068749;28;20056;-78
2023/05/03 02:38:49;;;;;;;17.35;10.57;;;;;;;3.67;97.71;102059.50;5071276;28;20077;-78
2023/05/03 02:41:16;;;;;;;18.73;10.70;;;;;;;3.69;98.19;102062.03;5057948;28;20131;-78
2023/05/03 02:43:42;;;;;;;17.45;10.80;;;;;;;3.58;98.02;102065.13;5058700;28;20099;-78
2023/05/03 02:46:09;;;;;;;14.73;10.48;;;;;;;3.58;98.04;102062.56;5066121;28;20036;-77
2023/05/03 02:48:37;;;;;;;13.25;9.60;;;;;;;3.55;98.04;102054.94;5068247;28;20056;-77
2023/05/03 02:51:05;;;;;;;18.10;9.70;;;;;;;3.51;98.65;102052.56;5069271;28;20135;-77
2023/05/03 02:53:33;;;;;;;16.23;9.20;;;;;;;3.44;98.00;102052.03;5064167;28;20136;-78
2023/05/03 02:56:00;;;;;;;14.00;9.50;;;;;;;3.36;98.14;102050.72;5054786;28;20045;-76
2023/05/03 02:58:26;;;;;;;15.10;9.77;;;;;;;3.33;99.19;102054.31;5057781;28;20131;-78
2023/05/03 03:00:53;;;;;;;14.20;9.60;;;;;;;3.30;98.82;102050.16;5068443;28;20048;-77
2023/05/03 03:03:19;;;;;;;16.35;9.55;;;;;;;3.29;98.76;102052.81;5062532;28;20705;-79
2023/05/03 03:05:48;;;;;;;18.05;10.68;;;;;;;3.25;98.60;102036.59;5058599;28;20145;-78
2023/05/03 03:08:14;;;;;;;16.30;10.35;;;;;;;3.25;98.73;102046.94;5057071;28;20220;-77
2023/05/03 03:10:41;;;;;;;17.13;12.52;;;;;;;3.19;98.71;102041.22;5063679;28;20110;-76
2023/05/03 03:13:07;;;;;;;16.45;11.25;;;;;;;3.26;99.85;102037.44;5057155;28;20124;-78
2023/05/03 03:15:34;;;;;;;19.00;11.15;;;;;;;3.24;98.90;102045.25;5059984;28;20136;-79
2023/05/03 03:18:01;;;;;;;19.40;10.15;;;;;;;3.18;98.77;102029.19;5069160;28;20064;-77
2023/05/03 03:20:27;;;;;;;22.83;10.80;;;;;;;3.17;99.29;102032.69;5068433;28;20080;-77
2023/05/03 03:22:55;;;;;;;22.38;11.73;;;;;;;3.13;98.87;102033.75;5068369;28;20044;-77
2023/05/03 03:25:22;;;;;;;18.17;11.48;;;;;;;3.13;99.87;102024.25;5063541;28;20080;-79
2023/05/03 03:27:49;;;;;;;21.02;11.40;;;;;;;3.15;99.92;102034.53;5068368;28;20100;-78
2023/05/03 03:30:16;;;;;;;22.13;10.63;;;;;;;3.09;99.66;102027.88;5065730;28;20128;-78
2023/05/03 03:32:42;;;;;;;20.65;11.40;;;;;;;3.07;99.64;102023.69;5067517;28;20151;-78
2023/05/03 03:35:10;;;;;;;23.38;11.35;;;;;;;3.08;99.80;102015.88;5060164;28;20112;-78
2023/05/03 03:37:37;;;;;;;17.15;10.13;;;;;;;3.11;100.00;102022.66;5063173;28;20045;-77
2023/05/03 03:40:07;;;;;;;19.95;11.13;;;;;;;3.05;100.00;102022.94;5062431;28;20127;-78
2023/05/03 03:42:34;;;;;;;17.95;10.85;;;;;;;3.04;100.00;102023.84;5059771;28;20452;-78
2023/05/03 03:45:01;;;;;;;19.98;10.55;;;;;;;3.05;100.00;102017.75;5071804;28;20136;-77
2023/05/03 03:47:27;;;;;;;19.15;10.40;;;;;;;3.05;100.00;102018.59;5057325;28;20122;-78
2023/05/03 03:49:54;;;;;;;15.45;11.20;;;;;;;3.04;100.00;102010.91;5068670;28;20051;-78
2023/05/03 03:52:21;;;;;;;15.48;10.95;;;;;;;3.01;100.00;102017.06;5071038;28;20060;-77
2023/05/03 03:54:47;;;;;;;17.17;10.65;;;;;;;2.97;100.00;102018.97;5070736;28;20055;-77
2023/05/03 03:57:15;;;;;;;17.63;11.48;;;;;;;2.98;100.00;102018.06;5068311;28;20127;-77
2023/05/03 03:59:42;;;;;;;21.75;11.45;;;;;;;3.00;100.00;102013.66;5066190;28;20157;-78
2023/05/03 04:02:08;;;;;;;22.35;11.48;;;;;;;2.94;100.00;102016.53;5070433;28;20051;-77
2023/05/03 04:04:35;;;;;;;18.85;10.80;;;;;;;2.99;100.00;102016.31;5061912;28;20055;-77
2023/05/03 04:07:02;;;;;;;19.70;10.77;;;;;;;3.01;100.00;102009.31;5070338;28;20146;-78
2023/05/03 04:09:28;;;;;;;23.23;12.10;;;;;;;2.99;100.00;102011.97;5068051;28;20202;-79
2023/05/03 04:11:55;;;;;;;21.85;11.55;;;;;;;2.98;100.00;102005.13;5061823;28;20132;-79
2023/05/03 04:14:23;;;;;;;20.00;10.20;;;;;;;2.99;100.00;102003.38;5074796;28;20098;-79
2023/05/03 04:16:49;;;;;;;21.73;11.40;;;;;;;3.07;100.00;101992.66;5061751;28;20561;-78
2023/05/03 04:19:17;;;;;;;16.98;11.00;;;;;;;3.11;100.00;101991.59;5063458;28;20082;-77
2023/05/03 04:21:43;;;;;;;20.17;11.38;;;;;;;3.16;100.00;101989.63;5074982;28;20106;-78
2023/05/03 04:24:15;;;;;;;16.33;10.73;;;;;;;3.41;100.00;101989.25;5067254;28;20091;-77
2023/05/03 04:26:42;;;;;;;17.10;10.75;;;;;;;3.76;100.00;101985.72;5053869;28;20053;-77
2023/05/03 04:29:09;;;;;;;19.48;11.30;;;;;;;3.98;100.00;101998.38;5064057;28;20148;-79
2023/05/03 04:31:37;;;;;;;16.55;11.00;;;;;;;4.06;99.46;102001.41;5062336;28;20049;-77
2023/05/03 04:34:04;;;;;;;20.70;10.90;;;;;;;4.18;99.13;102007.69;5062468;28;20397;-78
2023/05/03 04:36:31;;;;;;;21.15;10.80;;;;;;;4.28;98.25;102009.69;5072355;28;20051;-77
2023/05/03 04:38:58;;;;;;;16.92;9.98;;;;;;;4.40;97.54;102013.38;5060348;28;20052;-78
2023/05/03 04:41:25;;;;;;;16.80;10.20;;;;;;;4.40;97.26;102020.31;5064303;28;20131;-78
2023/05/03 04:43:52;;;;;;;23.27;10.93;;;;;;;4.46;96.62;102017.41;5074605;28;20075;-78
2023/05/03 04:46:19;;;;;;;20.60;10.90;;;;;;;4.56;96.36;102023.78;5067232;28;20060;-77
2023/05/03 04:48:47;;;;;;;18.77;11.57;;;;;;;4.88;95.80;102029.78;5071622;28;20032;-77
2023/05/03 04:51:13;;;;;;;14.13;9.45;;;;;;;5.25;94.51;102033.72;5065683;28;20171;-78
2023/05/03 04:53:40;;;;;;;16.88;10.07;;;;;;;5.49;93.09;102031.47;5064838;28;20052;-78
2023/05/03 04:56:07;;;;;;;18.27;10.00;;;;;;;5.68;91.96;102043.28;5064024;28;20087;-77
2023/05/03 04:58:35;;;;;;;15.90;9.77;;;;;;;5.78;90.66;102037.56;5055784;28;20132;-77
2023/05/03 05:01:02;;;;;;;16.95;9.85;;;;;;;5.89;89.93;102037.78;5073021;28;20123;-75
2023/05/03 05:03:30;;;;;;;13.43;9.32;;;;;;;6.22;89.07;102037.50;5066775;28;20049;-78
2023/05/03 05:05:58;;;;;;;14.52;9.73;;;;;;;6.59;87.81;102034.31;5064753;28;20079;-78
2023/05/03 05:08:25;;;;;;;15.23;9.32;;;;;;;6.92;86.79;102013.13;5067829;28;20040;-78
2023/05/03 05:10:51;;;;;;;14.20;9.05;;;;;;;7.43;85.34;102018.47;5057221;28;20052;-78
2023/05/03 05:13:18;;;;;;;18.98;9.57;;;;;;;7.75;83.75;102012.84;5066294;28;20052;-78
2023/05/03 05:15:45;;;;;;;19.95;10.15;;;;;;;8.04;82.20;102016.88;5069020;28;20056;-78
2023/05/03 05:18:11;;;;;;;17.05;9.23;;;;;;;8.24;80.96;102021.56;5071850;28;20104;-79
2023/05/03 05:20:38;;;;;;;14.27;8.98;;;;;;;8.65;80.08;102016.06;5078912;28;20056;-79
2023/05/03 05:23:06;;;;;;;13.77;8.95;;;;;;;9.39;78.22;102021.97;5076160;28;20131;-79
2023/05/03 05:25:33;;;;;;;19.98;9.85;;;;;;;10.06;76.35;102018.59;5075782;28;20125;-78
2023/05/03 05:27:59;;;;;;;17.23;9.73;;;;;;;11.06;73.33;102017.59;5074874;28;20080;-79
2023/05/03 05:30:26;;;;;;;13.77;9.80;;;;;;;11.75;70.83;102015.31;5056075;28;20123;-80
2023/05/03 05:32:53;;;;;;;18.75;9.40;;;;;;;12.27;68.61;102020.41;5056917;28;20080;-79
2023/05/03 05:35:19;;;;;;;10.77;9.10;;;;;;;12.83;65.97;102022.44;5065295;28;20057;-79
2023/05/03 05:37:46;;;;;;;14.13;9.82;;;;;;;13.01;64.93;102022.59;5055777;28;20081;-79
2023/05/03 05:40:15;;;;;;;16.05;9.98;;;;;;;13.09;63.52;102020.13;5057365;28;20048;-79
2023/05/03 05:42:41;;;;;;;14.38;10.10;;;;;;;13.29;63.18;102020.94;5062389;28;20056;-79
2023/05/03 05:45:09;;;;;;;16.38;9.32;;;;;;;13.43;62.73;102022.31;5065000;28;20492;-77
2023/05/03 05:47:38;;;;;;;15.77;8.57;;;;;;;13.49;61.84;102017.34;5063221;28;20088;-78
2023/05/03 05:50:06;;;;;;;12.10;8.98;;;;;;;13.48;60.56;102020.09;5055902;28;20102;-78
2023/05/03 05:52:32;;;;;;;13.55;8.45;;;;;;;13.43;60.95;102024.97;5055817;28;20139;-78
2023/05/03 05:54:59;;;;;;;12.30;9.18;;;;;;;13.27;61.73;102031.59;5057888;28;20087;-78
2023/05/03 05:57:27;;;;;;;11.70;9.30;;;;;;;13.50;60.69;102018.16;5069466;28;20052;-78
2023/05/03 05:59:54;;;;;;;14.98;9.82;;;;;;;14.02;60.00;102027.28;5072196;28;20132;-78
2023/05/03 06:02:23;;;;;;;14.23;8.82;;;;;;;13.66;59.78;102025.47;5058416;28;20064;-78
2023/05/03 06:04:50;;;;;;;14.00;9.02;;;;;;;14.14;60.04;102023.50;5072909;28;20396;-77
2023/05/03 06:07:16;;;;;;;16.10;9.38;;;;;;;13.79;60.03;102033.88;5068412;28;20128;-78
2023/05/03 06:09:43;;;;;;;11.20;9.02;;;;;;;14.93;57.94;102029.00;5072378;28;20135;-77
2023/05/03 06:12:10;;;;;;;14.75;10.02;;;;;;;14.50;57.92;102028.91;5078152;28;20052;-77
2023/05/03 06:14:38;;;;;;;15.05;9.10;;;;;;;14.50;57.74;102034.16;5078863;28;20056;-77
2023/05/03 06:17:04;;;;;;;11.73;8.60;;;;;;;14.44;57.63;102042.66;5072995;28;20064;-78
2023/05/03 06:19:34;;;;;;;10.90;8.88;;;;;;;15.12;55.83;102035.13;5062560;28;20112;-78
2023/05/03 06:22:01;;;;;;;12.40;8.10;;;;;;;15.21;55.49;102031.53;5074527;28;20048;-79
2023/05/03 06:24:30;;;;;;;18.77;9.02;;;;;;;15.34;54.86;102029.34;5074063;28;20450;-80
2023/05/03 06:26:57;;;;;;;12.52;8.40;;;;;;;15.67;53.77;102026.97;5081337;28;20238;-79
2023/05/03 06:29:24;;;;;;;17.67;8.70;;;;;;;16.00;53.16;102030.63;5064734;28;20052;-79
2023/05/03 06:31:52;;;;;;;12.90;8.98;;;;;;;16.00;52.58;102031.47;5065420;28;20131;-80
2023/05/03 06:34:20;;;;;;;10.52;7.47;;;;;;;15.59;52.78;102031.22;5063558;28;20044;-79
2023/05/03 06:36:47;;;;;;;9.25;6.65;;;;;;;15.49;52.05;102029.63;5076531;28;20049;-77
2023/05/03 06:39:13;;;;;;;8.70;7.03;;;;;;;14.90;52.69;102018.75;5061924;28;20080;-78
2023/05/03 06:41:40;;;;;;;10.30;7.47;;;;;;;14.94;53.48;102038.56;5065648;28;20045;-80
2023/05/03 06:44:07;;;;;;;13.13;7.20;;;;;;;15.17;54.03;102033.66;5065333;28;20127;-77
2023/05/03 06:46:34;;;;;;;13.23;7.60;;;;;;;15.81;53.09;102029.03;5069514;28;20156;-77
2023/05/03 06:49:02;;;;;;;14.50;8.45;;;;;;;15.82;52.29;102028.06;5064195;28;20473;-77
2023/05/03 06:51:31;;;;;;;10.98;7.20;;;;;;;16.42;51.69;102020.06;5067300;28;20053;-79
2023/05/03 06:54:00;;;;;;;11.80;7.32;;;;;;;15.95;52.32;102033.75;5076721;28;20116;-79
2023/05/03 06:56:27;;;;;;;11.05;8.05;;;;;;;14.15;55.16;102035.69;5083968;28;20090;-77
2023/05/03 06:58:54;;;;;;;11.10;7.57;;;;;;;15.19;54.93;102042.25;5069506;28;20116;-77
2023/05/03 07:01:22;;;;;;;11.93;7.85;;;;;;;15.42;54.43;102039.13;5080621;28;20075;-78
2023/05/03 07:03:48;;;;;;;12.93;7.03;;;;;;;15.24;53.80;102033.88;5095499;28;20094;-78
2023/05/03 07:06:17;;;;;;;10.32;7.82;;;;;;;14.16;56.06;102026.81;5089153;28;20073;-78
2023/05/03 07:08:43;;;;;;;13.75;7.75;;;;;;;14.97;54.72;102036.63;5096511;28;20048;-79
2023/05/03 07:11:10;;;;;;;10.43;7.20;;;;;;;15.38;53.29;102020.16;5090903;28;20044;-79
2023/05/03 07:13:37;;;;;;;10.60;7.68;;;;;;;14.86;54.85;102037.66;5082803;28;20052;-79
2023/05/03 07:16:04;;;;;;;15.38;7.10;;;;;;;16.42;52.20;102034.09;5082193;28;20076;-79
2023/05/03 07:18:30;;;;;;;9.48;7.65;;;;;;;14.74;52.67;102020.41;5075937;28;20053;-79
2023/05/03 07:20:57;;;;;;;11.95;7.43;;;;;;;14.82;52.51;102023.97;5091067;28;20044;-79
2023/05/03 07:23:25;;;;;;;13.82;6.88;;;;;;;14.97;52.62;102018.16;5069643;28;20079;-79
2023/05/03 07:25:52;;;;;;;10.27;7.03;;;;;;;15.72;52.04;102022.06;5072684;28;20059;-79
2023/05/03 07:28:23;;;;;;;10.40;7.25;;;;;;;14.94;53.10;102022.75;5072986;28;20049;-79
2023/05/03 07:30:50;;;;;;;9.73;7.05;;;;;;;15.46;52.84;102022.03;5067999;28;20098;-78
2023/05/03 07:33:19;;;;;;;11.63;7.90;;;;;;;14.98;52.42;102014.56;5072156;28;20524;-77
2023/05/03 07:35:46;;;;;;;14.35;8.05;;;;;;;14.85;52.84;102012.28;5075284;28;20075;-78
2023/05/03 07:38:13;;;;;;;11.48;7.63;;;;;;;15.23;52.50;102016.41;5064017;28;20045;-78
2023/05/03 07:40:41;;;;;;;13.20;7.72;;;;;;;15.00;52.21;102004.69;5072536;28;20274;-78
2023/05/03 07:43:09;;;;;;;11.02;7.75;;;;;;;15.47;51.19;101998.13;5072990;28;20128;-78
2023/05/03 07:45:36;;;;;;;10.85;7.68;;;;;;;16.09;50.74;101988.25;5055660;28;20088;-78
2023/05/03 07:48:03;;;;;;;15.57;8.40;;;;;;;15.13;52.48;102007.75;5067996;28;20407;-78
2023/05/03 07:50:30;;;;;;;11.10;7.20;;;;;;;15.86;51.87;101995.09;5057494;28;20049;-78
2023/05/03 07:52:56;;;;;;;13.10;7.60;;;;;;;15.54;51.58;101987.78;5067469;28;20048;-77
2023/05/03 07:55:23;;;;;;;11.15;7.85;;;;;;;14.55;52.36;101980.06;5065408;28;20140;-77
2023/05/03 07:57:57;;;;;;;14.27;7.65;;;;;;;15.82;51.47;101977.91;5067933;28;20077;-79
2023/05/03 08:00:23;;;;;;;11.35;6.93;;;;;;;15.97;51.08;101975.50;5071622;28;20048;-77
2023/05/03 08:02:50;;;;;;;11.95;7.55;;;;;;;15.44;51.24;101987.88;5066702;28;20053;-76
2023/05/03 08:05:17;;;;;;;11.07;6.97;;;;;;;15.91;49.77;101967.22;5052501;28;20136;-78
2023/05/03 08:07:44;;;;;;;10.98;7.22;;;;;;;15.97;49.98;101976.34;5060194;28;22011;-78
2023/05/03 08:10:11;;;;;;;13.57;7.65;;;;;;;15.88;50.80;101988.66;5060585;28;20152;-78
2023/05/03 08:12:38;;;;;;;11.27;7.47;;;;;;;15.74;50.81;101988.41;5059560;28;20131;-79
2023/05/03 08:15:07;;;;;;;10.00;7.22;;;;;;;15.83;49.50;101987.47;5052235;28;20049;-78
2023/05/03 08:17:40;;;;;;;10.38;7.20;;;;;;;16.76;48.86;101980.34;5065196;28;20581;-77
2023/05/03 08:20:08;;;;;;;9.40;7.00;;;;;;;16.12;49.26;101969.44;5071222;28;20136;-76
2023/05/03 08:22:35;;;;;;;10.93;7.07;;;;;;;15.79;49.82;101971.13;5055010;28;20048;-76
2023/05/03 08:25:03;;;;;;;12.90;7.75;;;;;;;16.43;49.64;101972.34;5064730;28;20224;-78
2023/05/03 08:27:30;;;;;;;11.75;7.15;;;;;;;15.91;48.92;101963.75;5062198;28;20140;-76
2023/05/03 08:29:56;;;;;;;12.48;6.82;;;;;;;15.39;50.94;101979.59;5072329;28;20052;-77
2023/05/03 08:32:24;;;;;;;11.93;6.82;;;;;;;14.70;51.27;101977.72;5052680;28;20160;-76
2023/05/03 08:34:52;;;;;;;11.27;6.80;;;;;;;15.12;50.73;101967.38;5061257;28;20044;-77
2023/05/03 08:37:19;;;;;;;11.82;7.03;;;;;;;15.84;49.43;101968.84;5057311;28;20048;-77
2023/05/03 08:39:47;;;;;;;10.25;7.40;;;;;;;15.41;48.77;101950.44;5059914;28;20048;-74
2023/05/03 08:42:14;;;;;;;11.07;7.00;;;;;;;15.53;49.51;101960.59;5059277;28;20056;-73
2023/05/03 08:44:48;;;;;;;8.25;7.05;;;;;;;15.61;49.38;101957.16;5060715;28;20756;-75
2023/05/03 08:47:15;;;;;;;10.32;7.10;;;;;;;16.00;48.37;101960.19;5063010;28;20061;-75
2023/05/03 08:49:44;;;;;;;9.20;6.53;;;;;;;14.81;50.00;101961.69;5060042;28;20056;-75
2023/05/03 08:52:11;;;;;;;7.75;6.50;;;;;;;14.12;51.29;101964.91;5056483;28;20084;-75
2023/05/03 08:54:41;;;;;;;12.43;7.13;;;;;;;15.77;49.64;101956.44;5065524;28;20048;-75
2023/05/03 08:57:13;;;;;;;9.02;6.30;;;;;;;15.81;49.24;101965.69;5066980;28;20107;-74
2023/05/03 08:59:47;;;;;;;11.40;6.53;;;;;;;15.18;49.17;101953.56;5065686;28;20140;-77
2023/05/03 09:02:15;;;;;;;9.30;6.43;;;;;;;15.07;50.83;101963.56;5065713;28;20048;-75
2023/05/03 09:04:48;;;;;;;10.27;6.78;;;;;;;15.73;49.15;101955.09;5064503;28;20389;-75
2023/05/03 09:07:15;;;;;;;8.50;6.43;;;;;;;14.94;49.86;101948.13;5062455;28;20559;-77
2023/05/03 09:09:42;;;;;;;10.80;7.00;;;;;;;14.34;50.27;101954.94;5065894;28;20040;-76
2023/05/03 09:12:09;;;;;;;8.43;6.53;;;;;;;15.56;49.51;101952.38;5063506;28;19929;-76
2023/05/03 09:14:46;;;;;;;10.35;7.20;;;;;;;15.88;48.04;101942.97;5063821;28;20048;-74
2023/05/03 09:17:18;;;;;;;11.00;7.05;;;;;;;15.22;49.54;101948.81;5064276;28;20084;-76
2023/05/03 09:19:53;;;;;;;10.20;7.18;;;;;;;14.72;49.60;101949.41;5056737;28;20063;-73
2023/05/03 09:22:19;;;;;;;8.60;6.78;;;;;;;15.40;48.91;101939.06;5064653;28;20059;-76
2023/05/03 09:24:53;;;;;;;12.05;6.60;;;;;;;15.96;48.10;101937.72;5061815;28;20056;-76
2023/05/03 09:27:21;;;;;;;10.13;6.72;;;;;;;15.83;47.87;101939.97;5061792;28;20049;-77
2023/05/03 09:29:48;;;;;;;8.48;6.18;;;;;;;14.92;49.85;101944.81;5066962;28;20040;-78
2023/05/03 09:32:15;;;;;;;13.65;6.95;;;;;;;14.69;50.73;101940.97;5069710;28;20068;-77
2023/05/03 09:34:43;;;;;;;13.20;8.27;;;;;;;14.19;51.43;101955.44;5065705;28;20104;-76
2023/05/03 09:37:12;;;;;;;10.40;6.80;;;;;;;14.96;50.32;101940.91;5073990;28;20135;-78
2023/05/03 09:39:40;;;;;;;9.82;7.05;;;;;;;14.86;50.25;101935.72;5070408;28;20501;-77
2023/05/03 09:42:11;;;;;;;10.23;7.20;;;;;;;14.50;51.05;101939.34;5065535;28;20148;-76
2023/05/03 09:44:47;;;;;;;9.38;6.88;;;;;;;14.71;51.27;101944.28;5067077;28;20045;-77
2023/05/03 09:47:14;;;;;;;9.60;6.40;;;;;;;14.75;50.65;101935.94;5064291;28;20049;-76
2023/05/03 09:49:41;;;;;;;11.48;7.18;;;;;;;15.04;50.68;101930.44;5065240;28;20044;-77
2023/05/03 09:52:09;;;;;;;8.68;6.78;;;;;;;15.51;50.51;101924.78;5065569;28;20044;-77
2023/05/03 09:54:37;;;;;;;11.63;7.80;;;;;;;14.82;51.19;101923.00;5067415;28;20048;-77
2023/05/03 09:57:05;;;;;;;9.23;6.85;;;;;;;14.73;51.69;101935.25;5067332;28;20044;-77
2023/05/03 09:59:32;;;;;;;11.25;7.65;;;;;;;14.75;51.79;101927.22;5068168;28;20576;-78
2023/05/03 10:02:02;;;;;;;8.50;6.68;;;;;;;15.27;51.04;101922.81;5065969;28;20041;-76
2023/05/03 10:04:38;;;;;;;10.48;7.22;;;;;;;15.10;51.99;101921.09;5064929;28;20070;-77
2023/05/03 10:07:12;;;;;;;11.30;7.75;;;;;;;15.09;51.82;101911.50;5065824;28;20089;-78
2023/05/03 10:09:43;;;;;;;17.35;7.20;;;;;;;15.89;51.40;101907.66;5062538;28;20057;-80
2023/05/03 10:12:11;;;;;;;14.15;7.60;;;;;;;14.83;50.68;101901.75;5072324;28;20083;-78
2023/05/03 10:14:41;;;;;;;12.32;7.70;;;;;;;15.53;51.12;101901.72;5070702;28;20103;-80
2023/05/03 10:17:15;;;;;;;11.32;7.55;;;;;;;14.81;51.02;101885.28;5068034;28;20041;-80
2023/05/03 10:19:50;;;;;;;12.27;6.97;;;;;;;15.01;51.94;101890.38;5069577;28;20420;-79
2023/05/03 10:22:16;;;;;;;10.20;7.22;;;;;;;15.13;51.35;101878.56;5065938;28;20071;-80
2023/05/03 10:25:08;;;;;;;8.98;7.07;;;;;;;14.69;51.95;101891.75;5071288;28;20455;-80
2023/05/03 10:27:42;;;;;;;11.05;7.00;;;;;;;15.14;51.66;101893.41;5066307;28;20048;-81
2023/05/03 10:30:27;;;;;;;;;;;;;;;14.88;51.51;101896.84;5075961;28;20045;-80
2023/05/03 10:32:54;;;;;;;;;;;;;;;14.83;52.08;101888.59;5076114;28;19956;-80
2023/05/03 10:35:20;;;;;;;;;;;;;;;14.95;51.25;101889.16;5070284;28;20603;-78
2023/05/03 10:37:49;;;;;;;;;;;;;;;15.64;51.58;101888.25;5072071;28;20329;-79
2023/05/03 10:40:17;;;;;;;;;;;;;;;15.41;50.54;101881.88;5074857;28;19920;-78
2023/05/03 10:42:45;;;;;;;;;;;;;;;15.99;49.46;101881.13;5073158;28;20015;-78
2023/05/03 10:45:22;;;;;;;11.27;6.60;;;;;;;14.94;49.83;101866.44;5071987;28;19924;-78
2023/05/03 10:48:19;;;;;;;7.15;5.75;;;;;;;15.52;50.23;101869.22;5069152;28;20589;-77
2023/05/03 10:50:46;;;;;;;9.85;6.75;;;;;;;15.68;50.58;101876.41;5071073;28;20044;-77
2023/05/03 10:53:36;;;;;;;8.90;6.60;;;;;;;15.35;50.41;101872.75;5065288;28;20132;-77
2023/05/03 10:56:07;;;;;;;13.00;7.18;;;;;;;15.34;50.41;101863.19;5067198;28;20120;-78
2023/05/03 10:58:36;;;;;;;11.25;7.05;;;;;;;15.68;50.64;101879.03;5068032;28;20528;-78
2023/05/03 11:01:04;;;;;;;9.43;7.03;;;;;;;14.84;51.18;101876.22;5078402;28;20059;-79
2023/05/03 11:03:39;;;;;;;14.82;7.13;;;;;;;15.44;51.89;101882.38;5082768;28;20083;-80
2023/05/03 11:06:06;;;;;;;12.95;7.30;;;;;;;15.62;50.51;101870.94;5076798;28;20136;-80
2023/05/03 11:08:36;;;;;;;11.85;7.00;;;;;;;15.07;50.72;101866.03;5062676;28;20052;-79
2023/05/03 11:11:08;;;;;;;10.48;7.05;;;;;;;15.57;51.09;101871.44;5065792;28;20072;-77
2023/05/03 11:13:35;;;;;;;12.15;7.35;;;;;;;16.21;49.65;101857.56;5063762;28;20485;-81
2023/05/03 11:16:03;;;;;;;10.05;6.55;;;;;;;16.31;49.50;101859.25;5066464;28;20484;-76
2023/05/03 11:18:29;;;;;;;10.45;6.40;;;;;;;16.09;49.73;101852.75;5064090;28;20091;-79
2023/05/03 11:20:56;;;;;;;12.13;6.65;;;;;;;16.17;49.88;101850.97;5065822;28;20135;-78
2023/05/03 11:23:26;;;;;;;10.35;5.82;;;;;;;16.71;49.47;101855.78;5068028;28;20620;-79